sensor_id;sensor_type;location;lat;lon;timestamp;P1;durP1;ratioP1;P2;durP2;ratioP2
22949;SDS011;11641;51.018;4.474;2022-10-22T00:00:49;12.23;;;3.67;;
22949;SDS011;11641;51.018;4.474;2022-10-22T00:03:14;11.80;;;2.88;;
22949;SDS011;11641;51.018;4.474;2022-10-22T00:05:40;10.38;;;2.80;;
22949;SDS011;11641;51.018;4.474;2022-10-22T00:08:06;13.43;;;2.85;;
22949;SDS011;11641;51.018;4.474;2022-10-22T00:10:31;9.60;;;2.75;;
22949;SDS011;11641;51.018;4.474;2022-10-22T00:12:57;10.75;;;2.80;;
22949;SDS011;11641;51.018;4.474;2022-10-22T00:15:23;11.70;;;2.97;;
22949;SDS011;11641;51.018;4.474;2022-10-22T00:17:48;10.93;;;2.90;;
22949;SDS011;11641;51.018;4.474;2022-10-22T00:20:15;10.43;;;2.80;;
22949;SDS011;11641;51.018;4.474;2022-10-22T00:22:41;11.50;;;2.50;;
22949;SDS011;11641;51.018;4.474;2022-10-22T00:25:06;10.13;;;3.13;;
22949;SDS011;11641;51.018;4.474;2022-10-22T00:27:33;15.20;;;2.83;;
22949;SDS011;11641;51.018;4.474;2022-10-22T00:30:01;15.00;;;3.00;;
22949;SDS011;11641;51.018;4.474;2022-10-22T00:32:27;11.90;;;2.80;;
22949;SDS011;11641;51.018;4.474;2022-10-22T00:34:52;12.80;;;3.00;;
22949;SDS011;11641;51.018;4.474;2022-10-22T00:37:20;8.82;;;2.65;;
22949;SDS011;11641;51.018;4.474;2022-10-22T00:39:48;9.43;;;2.53;;
22949;SDS011;11641;51.018;4.474;2022-10-22T00:42:15;9.60;;;2.50;;
22949;SDS011;11641;51.018;4.474;2022-10-22T00:47:35;12.77;;;2.90;;
22949;SDS011;11641;51.018;4.474;2022-10-22T00:50:15;12.63;;;2.63;;
22949;SDS011;11641;51.018;4.474;2022-10-22T00:52:44;7.15;;;2.25;;
22949;SDS011;11641;51.018;4.474;2022-10-22T00:55:11;10.20;;;2.28;;
22949;SDS011;11641;51.018;4.474;2022-10-22T00:57:40;8.63;;;2.20;;
22949;SDS011;11641;51.018;4.474;2022-10-22T01:00:06;10.98;;;2.10;;
22949;SDS011;11641;51.018;4.474;2022-10-22T01:02:35;7.68;;;2.60;;
22949;SDS011;11641;51.018;4.474;2022-10-22T01:05:01;13.65;;;2.67;;
22949;SDS011;11641;51.018;4.474;2022-10-22T01:07:30;9.25;;;2.15;;
22949;SDS011;11641;51.018;4.474;2022-10-22T01:10:04;10.98;;;2.47;;
22949;SDS011;11641;51.018;4.474;2022-10-22T01:15:25;11.73;;;2.42;;
22949;SDS011;11641;51.018;4.474;2022-10-22T01:23:47;11.23;;;2.83;;
22949;SDS011;11641;51.018;4.474;2022-10-22T01:26:29;14.90;;;2.80;;
22949;SDS011;11641;51.018;4.474;2022-10-22T01:31:53;9.20;;;2.25;;
22949;SDS011;11641;51.018;4.474;2022-10-22T01:34:22;12.93;;;2.67;;
22949;SDS011;11641;51.018;4.474;2022-10-22T01:36:52;10.20;;;2.80;;
22949;SDS011;11641;51.018;4.474;2022-10-22T01:39:20;12.27;;;2.78;;
22949;SDS011;11641;51.018;4.474;2022-10-22T01:41:47;10.90;;;2.53;;
22949;SDS011;11641;51.018;4.474;2022-10-22T01:44:28;15.77;;;3.05;;
22949;SDS011;11641;51.018;4.474;2022-10-22T01:47:02;11.73;;;2.80;;
22949;SDS011;11641;51.018;4.474;2022-10-22T01:55:35;13.07;;;2.45;;
22949;SDS011;11641;51.018;4.474;2022-10-22T02:06:58;9.52;;;2.33;;
22949;SDS011;11641;51.018;4.474;2022-10-22T02:09:27;10.40;;;2.70;;
22949;SDS011;11641;51.018;4.474;2022-10-22T02:11:55;12.40;;;2.80;;
22949;SDS011;11641;51.018;4.474;2022-10-22T02:14:22;8.80;;;2.50;;
22949;SDS011;11641;51.018;4.474;2022-10-22T02:16:54;7.00;;;2.08;;
22949;SDS011;11641;51.018;4.474;2022-10-22T02:19:29;9.68;;;2.67;;
22949;SDS011;11641;51.018;4.474;2022-10-22T02:22:13;9.90;;;2.53;;
22949;SDS011;11641;51.018;4.474;2022-10-22T02:24:39;11.13;;;3.03;;
22949;SDS011;11641;51.018;4.474;2022-10-22T02:27:10;9.13;;;2.45;;
22949;SDS011;11641;51.018;4.474;2022-10-22T02:32:14;14.85;;;2.70;;
22949;SDS011;11641;51.018;4.474;2022-10-22T02:34:42;6.57;;;2.15;;
22949;SDS011;11641;51.018;4.474;2022-10-22T02:37:10;9.80;;;2.53;;
22949;SDS011;11641;51.018;4.474;2022-10-22T02:39:37;8.52;;;2.40;;
22949;SDS011;11641;51.018;4.474;2022-10-22T02:42:04;7.80;;;2.20;;
22949;SDS011;11641;51.018;4.474;2022-10-22T02:44:29;11.40;;;2.25;;
22949;SDS011;11641;51.018;4.474;2022-10-22T02:46:56;10.77;;;2.50;;
22949;SDS011;11641;51.018;4.474;2022-10-22T02:49:23;8.25;;;2.67;;
22949;SDS011;11641;51.018;4.474;2022-10-22T02:51:49;8.88;;;2.40;;
22949;SDS011;11641;51.018;4.474;2022-10-22T02:54:15;11.65;;;2.83;;
22949;SDS011;11641;51.018;4.474;2022-10-22T02:56:43;7.38;;;2.05;;
22949;SDS011;11641;51.018;4.474;2022-10-22T02:59:10;13.77;;;3.60;;
22949;SDS011;11641;51.018;4.474;2022-10-22T03:01:36;12.30;;;2.30;;
22949;SDS011;11641;51.018;4.474;2022-10-22T03:04:04;10.80;;;2.78;;
22949;SDS011;11641;51.018;4.474;2022-10-22T03:06:32;11.18;;;2.03;;
22949;SDS011;11641;51.018;4.474;2022-10-22T03:08:58;9.60;;;2.20;;
22949;SDS011;11641;51.018;4.474;2022-10-22T03:11:23;12.07;;;2.42;;
22949;SDS011;11641;51.018;4.474;2022-10-22T03:13:49;12.73;;;1.98;;
22949;SDS011;11641;51.018;4.474;2022-10-22T03:16:14;7.30;;;2.05;;
22949;SDS011;11641;51.018;4.474;2022-10-22T03:18:40;12.52;;;2.25;;
22949;SDS011;11641;51.018;4.474;2022-10-22T03:21:15;14.10;;;2.55;;
22949;SDS011;11641;51.018;4.474;2022-10-22T03:23:50;12.20;;;2.20;;
22949;SDS011;11641;51.018;4.474;2022-10-22T03:26:19;7.40;;;1.90;;
22949;SDS011;11641;51.018;4.474;2022-10-22T03:28:45;9.65;;;1.98;;
22949;SDS011;11641;51.018;4.474;2022-10-22T03:31:12;11.77;;;2.28;;
22949;SDS011;11641;51.018;4.474;2022-10-22T03:33:38;10.48;;;1.83;;
22949;SDS011;11641;51.018;4.474;2022-10-22T03:36:06;10.20;;;1.77;;
22949;SDS011;11641;51.018;4.474;2022-10-22T03:38:36;10.20;;;1.83;;
22949;SDS011;11641;51.018;4.474;2022-10-22T03:41:04;9.93;;;2.03;;
22949;SDS011;11641;51.018;4.474;2022-10-22T03:43:30;8.43;;;1.60;;
22949;SDS011;11641;51.018;4.474;2022-10-22T03:45:55;10.00;;;1.90;;
22949;SDS011;11641;51.018;4.474;2022-10-22T03:48:24;8.90;;;1.75;;
22949;SDS011;11641;51.018;4.474;2022-10-22T03:50:52;13.43;;;2.10;;
22949;SDS011;11641;51.018;4.474;2022-10-22T03:53:20;7.75;;;1.90;;
22949;SDS011;11641;51.018;4.474;2022-10-22T03:55:46;10.27;;;1.85;;
22949;SDS011;11641;51.018;4.474;2022-10-22T03:58:14;9.90;;;2.05;;
22949;SDS011;11641;51.018;4.474;2022-10-22T04:00:42;8.25;;;1.67;;
22949;SDS011;11641;51.018;4.474;2022-10-22T04:03:10;10.70;;;1.88;;
22949;SDS011;11641;51.018;4.474;2022-10-22T04:05:36;8.77;;;1.70;;
22949;SDS011;11641;51.018;4.474;2022-10-22T04:08:01;12.48;;;1.77;;
22949;SDS011;11641;51.018;4.474;2022-10-22T04:10:29;9.52;;;1.80;;
22949;SDS011;11641;51.018;4.474;2022-10-22T04:12:55;14.82;;;1.90;;
22949;SDS011;11641;51.018;4.474;2022-10-22T04:15:21;9.73;;;1.58;;
22949;SDS011;11641;51.018;4.474;2022-10-22T04:17:46;12.77;;;2.00;;
22949;SDS011;11641;51.018;4.474;2022-10-22T04:20:16;7.00;;;1.48;;
22949;SDS011;11641;51.018;4.474;2022-10-22T04:22:44;10.75;;;2.03;;
22949;SDS011;11641;51.018;4.474;2022-10-22T04:25:10;8.82;;;1.60;;
22949;SDS011;11641;51.018;4.474;2022-10-22T04:27:38;12.13;;;1.80;;
22949;SDS011;11641;51.018;4.474;2022-10-22T04:30:04;14.77;;;2.03;;
22949;SDS011;11641;51.018;4.474;2022-10-22T04:32:31;14.20;;;1.90;;
22949;SDS011;11641;51.018;4.474;2022-10-22T04:34:56;13.52;;;3.03;;
22949;SDS011;11641;51.018;4.474;2022-10-22T04:37:22;8.95;;;1.63;;
22949;SDS011;11641;51.018;4.474;2022-10-22T04:39:48;4.78;;;1.38;;
22949;SDS011;11641;51.018;4.474;2022-10-22T04:42:15;15.13;;;1.77;;
22949;SDS011;11641;51.018;4.474;2022-10-22T04:44:41;8.38;;;1.77;;
22949;SDS011;11641;51.018;4.474;2022-10-22T04:47:07;14.98;;;2.03;;
22949;SDS011;11641;51.018;4.474;2022-10-22T04:49:32;12.10;;;2.15;;
22949;SDS011;11641;51.018;4.474;2022-10-22T04:51:58;11.90;;;2.10;;
22949;SDS011;11641;51.018;4.474;2022-10-22T04:54:24;9.05;;;1.80;;
22949;SDS011;11641;51.018;4.474;2022-10-22T04:56:49;9.20;;;1.65;;
22949;SDS011;11641;51.018;4.474;2022-10-22T04:59:15;12.23;;;1.60;;
22949;SDS011;11641;51.018;4.474;2022-10-22T05:01:41;7.80;;;1.60;;
22949;SDS011;11641;51.018;4.474;2022-10-22T05:04:13;8.10;;;1.60;;
22949;SDS011;11641;51.018;4.474;2022-10-22T05:06:41;9.90;;;1.58;;
22949;SDS011;11641;51.018;4.474;2022-10-22T05:09:10;6.00;;;1.67;;
22949;SDS011;11641;51.018;4.474;2022-10-22T05:11:41;15.52;;;1.65;;
22949;SDS011;11641;51.018;4.474;2022-10-22T05:14:12;10.55;;;1.60;;
22949;SDS011;11641;51.018;4.474;2022-10-22T05:16:39;10.60;;;1.92;;
22949;SDS011;11641;51.018;4.474;2022-10-22T05:19:11;9.63;;;1.60;;
22949;SDS011;11641;51.018;4.474;2022-10-22T05:21:44;12.07;;;2.42;;
22949;SDS011;11641;51.018;4.474;2022-10-22T05:24:12;6.20;;;1.33;;
22949;SDS011;11641;51.018;4.474;2022-10-22T05:26:41;7.40;;;1.38;;
22949;SDS011;11641;51.018;4.474;2022-10-22T05:29:07;14.05;;;1.58;;
22949;SDS011;11641;51.018;4.474;2022-10-22T05:31:33;8.43;;;1.70;;
22949;SDS011;11641;51.018;4.474;2022-10-22T05:33:59;10.38;;;1.75;;
22949;SDS011;11641;51.018;4.474;2022-10-22T05:36:25;10.57;;;1.80;;
22949;SDS011;11641;51.018;4.474;2022-10-22T05:38:52;6.55;;;1.30;;
22949;SDS011;11641;51.018;4.474;2022-10-22T05:41:20;12.43;;;1.27;;
22949;SDS011;11641;51.018;4.474;2022-10-22T05:43:48;7.30;;;1.45;;
22949;SDS011;11641;51.018;4.474;2022-10-22T05:46:14;8.23;;;1.65;;
22949;SDS011;11641;51.018;4.474;2022-10-22T05:49:18;9.00;;;1.40;;
22949;SDS011;11641;51.018;4.474;2022-10-22T05:51:38;7.35;;;1.42;;
22949;SDS011;11641;51.018;4.474;2022-10-22T05:54:07;13.70;;;2.22;;
22949;SDS011;11641;51.018;4.474;2022-10-22T05:56:46;13.00;;;1.70;;
22949;SDS011;11641;51.018;4.474;2022-10-22T05:59:12;10.75;;;1.48;;
22949;SDS011;11641;51.018;4.474;2022-10-22T06:01:38;14.30;;;1.50;;
22949;SDS011;11641;51.018;4.474;2022-10-22T06:04:09;5.65;;;1.30;;
22949;SDS011;11641;51.018;4.474;2022-10-22T06:06:37;14.25;;;1.52;;
22949;SDS011;11641;51.018;4.474;2022-10-22T06:11:45;12.38;;;1.85;;
22949;SDS011;11641;51.018;4.474;2022-10-22T06:14:12;8.50;;;1.77;;
22949;SDS011;11641;51.018;4.474;2022-10-22T06:16:39;10.52;;;1.50;;
22949;SDS011;11641;51.018;4.474;2022-10-22T06:19:06;9.60;;;1.50;;
22949;SDS011;11641;51.018;4.474;2022-10-22T06:21:33;9.20;;;1.33;;
22949;SDS011;11641;51.018;4.474;2022-10-22T06:23:59;8.57;;;1.23;;
22949;SDS011;11641;51.018;4.474;2022-10-22T06:26:28;11.18;;;1.65;;
22949;SDS011;11641;51.018;4.474;2022-10-22T06:28:54;12.10;;;1.60;;
22949;SDS011;11641;51.018;4.474;2022-10-22T06:31:21;12.13;;;1.42;;
22949;SDS011;11641;51.018;4.474;2022-10-22T06:33:47;6.47;;;1.33;;
22949;SDS011;11641;51.018;4.474;2022-10-22T06:36:13;10.70;;;1.55;;
22949;SDS011;11641;51.018;4.474;2022-10-22T06:38:43;10.60;;;1.77;;
22949;SDS011;11641;51.018;4.474;2022-10-22T06:41:13;10.23;;;1.65;;
22949;SDS011;11641;51.018;4.474;2022-10-22T06:43:43;7.13;;;1.60;;
22949;SDS011;11641;51.018;4.474;2022-10-22T06:46:11;10.40;;;1.83;;
22949;SDS011;11641;51.018;4.474;2022-10-22T06:48:40;7.57;;;1.27;;
22949;SDS011;11641;51.018;4.474;2022-10-22T06:51:09;8.35;;;1.23;;
22949;SDS011;11641;51.018;4.474;2022-10-22T06:53:36;8.70;;;1.45;;
22949;SDS011;11641;51.018;4.474;2022-10-22T06:56:09;8.75;;;1.50;;
22949;SDS011;11641;51.018;4.474;2022-10-22T06:58:37;8.40;;;1.85;;
22949;SDS011;11641;51.018;4.474;2022-10-22T07:01:03;11.38;;;1.90;;
22949;SDS011;11641;51.018;4.474;2022-10-22T07:03:31;4.50;;;1.30;;
22949;SDS011;11641;51.018;4.474;2022-10-22T07:06:00;6.65;;;1.48;;
22949;SDS011;11641;51.018;4.474;2022-10-22T07:08:30;10.05;;;1.63;;
22949;SDS011;11641;51.018;4.474;2022-10-22T07:11:06;8.45;;;1.70;;
22949;SDS011;11641;51.018;4.474;2022-10-22T07:13:34;6.22;;;1.30;;
22949;SDS011;11641;51.018;4.474;2022-10-22T07:15:59;11.85;;;1.65;;
22949;SDS011;11641;51.018;4.474;2022-10-22T07:18:26;12.30;;;1.67;;
22949;SDS011;11641;51.018;4.474;2022-10-22T07:20:51;7.78;;;1.23;;
22949;SDS011;11641;51.018;4.474;2022-10-22T07:23:17;7.53;;;1.48;;
22949;SDS011;11641;51.018;4.474;2022-10-22T07:25:43;11.40;;;1.65;;
22949;SDS011;11641;51.018;4.474;2022-10-22T07:28:11;11.07;;;1.80;;
22949;SDS011;11641;51.018;4.474;2022-10-22T07:30:38;14.25;;;2.60;;
22949;SDS011;11641;51.018;4.474;2022-10-22T07:33:04;9.38;;;1.60;;
22949;SDS011;11641;51.018;4.474;2022-10-22T07:35:32;9.48;;;1.70;;
22949;SDS011;11641;51.018;4.474;2022-10-22T07:37:59;6.55;;;1.40;;
22949;SDS011;11641;51.018;4.474;2022-10-22T07:40:27;10.75;;;1.80;;
22949;SDS011;11641;51.018;4.474;2022-10-22T07:42:55;9.55;;;1.42;;
22949;SDS011;11641;51.018;4.474;2022-10-22T07:45:20;7.32;;;1.52;;
22949;SDS011;11641;51.018;4.474;2022-10-22T07:47:49;7.55;;;1.80;;
22949;SDS011;11641;51.018;4.474;2022-10-22T07:50:17;11.82;;;1.85;;
22949;SDS011;11641;51.018;4.474;2022-10-22T07:52:45;7.70;;;1.50;;
22949;SDS011;11641;51.018;4.474;2022-10-22T07:55:11;8.85;;;1.90;;
22949;SDS011;11641;51.018;4.474;2022-10-22T07:57:39;9.70;;;1.50;;
22949;SDS011;11641;51.018;4.474;2022-10-22T08:00:08;9.68;;;1.70;;
22949;SDS011;11641;51.018;4.474;2022-10-22T08:02:36;6.80;;;1.45;;
22949;SDS011;11641;51.018;4.474;2022-10-22T08:05:03;9.13;;;2.15;;
22949;SDS011;11641;51.018;4.474;2022-10-22T08:07:34;8.82;;;1.33;;
22949;SDS011;11641;51.018;4.474;2022-10-22T08:10:04;10.70;;;1.58;;
22949;SDS011;11641;51.018;4.474;2022-10-22T08:12:30;11.13;;;1.50;;
22949;SDS011;11641;51.018;4.474;2022-10-22T08:14:56;10.48;;;2.30;;
22949;SDS011;11641;51.018;4.474;2022-10-22T08:17:21;8.70;;;1.60;;
22949;SDS011;11641;51.018;4.474;2022-10-22T08:19:47;9.73;;;1.60;;
22949;SDS011;11641;51.018;4.474;2022-10-22T08:22:13;8.63;;;1.85;;
22949;SDS011;11641;51.018;4.474;2022-10-22T08:24:39;7.43;;;1.50;;
22949;SDS011;11641;51.018;4.474;2022-10-22T08:27:05;8.23;;;1.80;;
22949;SDS011;11641;51.018;4.474;2022-10-22T08:29:33;8.43;;;1.55;;
22949;SDS011;11641;51.018;4.474;2022-10-22T08:31:58;9.93;;;1.60;;
22949;SDS011;11641;51.018;4.474;2022-10-22T08:34:26;9.20;;;1.55;;
22949;SDS011;11641;51.018;4.474;2022-10-22T08:36:52;7.97;;;1.60;;
22949;SDS011;11641;51.018;4.474;2022-10-22T08:39:18;9.10;;;1.70;;
22949;SDS011;11641;51.018;4.474;2022-10-22T08:42:03;8.95;;;1.40;;
22949;SDS011;11641;51.018;4.474;2022-10-22T08:52:45;13.63;;;1.98;;
22949;SDS011;11641;51.018;4.474;2022-10-22T08:55:17;11.57;;;1.45;;
22949;SDS011;11641;51.018;4.474;2022-10-22T08:57:49;9.07;;;1.73;;
22949;SDS011;11641;51.018;4.474;2022-10-22T09:03:27;9.02;;;1.58;;
22949;SDS011;11641;51.018;4.474;2022-10-22T09:06:20;11.45;;;1.90;;
22949;SDS011;11641;51.018;4.474;2022-10-22T09:08:48;8.90;;;1.42;;
22949;SDS011;11641;51.018;4.474;2022-10-22T09:11:22;12.80;;;1.80;;
22949;SDS011;11641;51.018;4.474;2022-10-22T09:13:51;8.27;;;1.92;;
22949;SDS011;11641;51.018;4.474;2022-10-22T09:27:32;5.45;;;1.38;;
22949;SDS011;11641;51.018;4.474;2022-10-22T09:29:59;10.10;;;1.48;;
22949;SDS011;11641;51.018;4.474;2022-10-22T09:32:25;10.10;;;1.83;;
22949;SDS011;11641;51.018;4.474;2022-10-22T09:34:54;8.27;;;1.60;;
22949;SDS011;11641;51.018;4.474;2022-10-22T09:37:24;12.32;;;1.73;;
22949;SDS011;11641;51.018;4.474;2022-10-22T09:39:51;10.90;;;1.88;;
22949;SDS011;11641;51.018;4.474;2022-10-22T09:42:18;6.88;;;1.40;;
22949;SDS011;11641;51.018;4.474;2022-10-22T09:44:55;8.18;;;1.55;;
22949;SDS011;11641;51.018;4.474;2022-10-22T09:52:45;8.88;;;1.95;;
22949;SDS011;11641;51.018;4.474;2022-10-22T09:55:19;11.82;;;1.75;;
22949;SDS011;11641;51.018;4.474;2022-10-22T09:57:54;9.18;;;1.70;;
22949;SDS011;11641;51.018;4.474;2022-10-22T10:00:24;8.57;;;1.35;;
22949;SDS011;11641;51.018;4.474;2022-10-22T10:02:57;9.10;;;2.08;;
22949;SDS011;11641;51.018;4.474;2022-10-22T10:05:29;10.45;;;1.98;;
22949;SDS011;11641;51.018;4.474;2022-10-22T10:07:57;7.40;;;1.65;;
22949;SDS011;11641;51.018;4.474;2022-10-22T10:19:00;8.07;;;1.48;;
22949;SDS011;11641;51.018;4.474;2022-10-22T10:24:44;6.78;;;1.45;;
22949;SDS011;11641;51.018;4.474;2022-10-22T10:27:41;8.63;;;1.48;;
22949;SDS011;11641;51.018;4.474;2022-10-22T10:30:20;8.13;;;1.77;;
22949;SDS011;11641;51.018;4.474;2022-10-22T10:33:04;10.82;;;1.58;;
22949;SDS011;11641;51.018;4.474;2022-10-22T10:35:57;8.13;;;1.40;;
22949;SDS011;11641;51.018;4.474;2022-10-22T10:38:50;8.10;;;1.35;;
22949;SDS011;11641;51.018;4.474;2022-10-22T10:41:24;11.07;;;2.00;;
22949;SDS011;11641;51.018;4.474;2022-10-22T10:49:16;6.30;;;1.45;;
22949;SDS011;11641;51.018;4.474;2022-10-22T10:52:31;7.78;;;1.50;;
22949;SDS011;11641;51.018;4.474;2022-10-22T10:54:49;7.47;;;1.77;;
22949;SDS011;11641;51.018;4.474;2022-10-22T11:02:48;8.65;;;1.67;;
22949;SDS011;11641;51.018;4.474;2022-10-22T11:08:31;8.70;;;1.65;;
22949;SDS011;11641;51.018;4.474;2022-10-22T11:11:06;7.15;;;1.42;;
22949;SDS011;11641;51.018;4.474;2022-10-22T11:13:45;8.18;;;1.40;;
22949;SDS011;11641;51.018;4.474;2022-10-22T11:16:28;7.72;;;1.77;;
22949;SDS011;11641;51.018;4.474;2022-10-22T11:21:44;9.52;;;1.38;;
22949;SDS011;11641;51.018;4.474;2022-10-22T11:27:41;9.63;;;1.73;;
22949;SDS011;11641;51.018;4.474;2022-10-22T11:30:17;3.67;;;1.10;;
22949;SDS011;11641;51.018;4.474;2022-10-22T11:32:46;5.82;;;1.45;;
22949;SDS011;11641;51.018;4.474;2022-10-22T11:35:27;10.23;;;2.17;;
22949;SDS011;11641;51.018;4.474;2022-10-22T11:37:56;5.95;;;1.42;;
22949;SDS011;11641;51.018;4.474;2022-10-22T11:40:36;6.40;;;1.60;;
22949;SDS011;11641;51.018;4.474;2022-10-22T11:43:04;8.05;;;1.50;;
22949;SDS011;11641;51.018;4.474;2022-10-22T11:45:35;7.78;;;1.58;;
22949;SDS011;11641;51.018;4.474;2022-10-22T11:48:14;9.70;;;1.85;;
22949;SDS011;11641;51.018;4.474;2022-10-22T11:50:49;7.65;;;2.17;;
22949;SDS011;11641;51.018;4.474;2022-10-22T11:53:30;8.10;;;1.30;;
22949;SDS011;11641;51.018;4.474;2022-10-22T12:17:04;7.15;;;1.33;;
22949;SDS011;11641;51.018;4.474;2022-10-22T12:19:35;7.38;;;1.48;;
22949;SDS011;11641;51.018;4.474;2022-10-22T12:24:53;6.18;;;1.20;;
22949;SDS011;11641;51.018;4.474;2022-10-22T12:27:22;7.82;;;1.73;;
22949;SDS011;11641;51.018;4.474;2022-10-22T12:29:55;8.77;;;1.52;;
22949;SDS011;11641;51.018;4.474;2022-10-22T12:32:22;10.45;;;1.73;;
22949;SDS011;11641;51.018;4.474;2022-10-22T12:34:56;9.77;;;1.58;;
22949;SDS011;11641;51.018;4.474;2022-10-22T12:37:27;4.53;;;1.02;;
22949;SDS011;11641;51.018;4.474;2022-10-22T12:40:00;7.13;;;1.45;;
22949;SDS011;11641;51.018;4.474;2022-10-22T12:42:27;10.90;;;1.60;;
22949;SDS011;11641;51.018;4.474;2022-10-22T12:44:54;6.78;;;1.60;;
22949;SDS011;11641;51.018;4.474;2022-10-22T12:47:20;5.60;;;1.20;;
22949;SDS011;11641;51.018;4.474;2022-10-22T12:49:47;8.70;;;1.50;;
22949;SDS011;11641;51.018;4.474;2022-10-22T12:52:19;8.15;;;1.80;;
22949;SDS011;11641;51.018;4.474;2022-10-22T12:54:49;7.88;;;1.60;;
22949;SDS011;11641;51.018;4.474;2022-10-22T12:57:17;7.57;;;1.48;;
22949;SDS011;11641;51.018;4.474;2022-10-22T12:59:48;7.90;;;1.58;;
22949;SDS011;11641;51.018;4.474;2022-10-22T13:02:24;7.55;;;1.52;;
22949;SDS011;11641;51.018;4.474;2022-10-22T13:05:06;6.55;;;1.38;;
22949;SDS011;11641;51.018;4.474;2022-10-22T13:07:40;6.75;;;1.33;;
22949;SDS011;11641;51.018;4.474;2022-10-22T13:10:13;5.75;;;1.33;;
22949;SDS011;11641;51.018;4.474;2022-10-22T13:12:59;7.47;;;1.20;;
22949;SDS011;11641;51.018;4.474;2022-10-22T13:18:22;5.18;;;1.20;;
22949;SDS011;11641;51.018;4.474;2022-10-22T13:20:51;5.75;;;1.13;;
22949;SDS011;11641;51.018;4.474;2022-10-22T13:23:20;7.03;;;1.50;;
22949;SDS011;11641;51.018;4.474;2022-10-22T13:25:57;6.85;;;1.25;;
22949;SDS011;11641;51.018;4.474;2022-10-22T13:28:35;4.18;;;1.10;;
22949;SDS011;11641;51.018;4.474;2022-10-22T13:31:01;4.22;;;0.90;;
22949;SDS011;11641;51.018;4.474;2022-10-22T13:33:40;6.47;;;1.27;;
22949;SDS011;11641;51.018;4.474;2022-10-22T13:36:14;4.85;;;1.10;;
22949;SDS011;11641;51.018;4.474;2022-10-22T13:38:41;5.90;;;1.20;;
22949;SDS011;11641;51.018;4.474;2022-10-22T13:41:27;6.03;;;1.33;;
22949;SDS011;11641;51.018;4.474;2022-10-22T13:44:01;4.55;;;1.00;;
22949;SDS011;11641;51.018;4.474;2022-10-22T13:46:27;7.95;;;1.30;;
22949;SDS011;11641;51.018;4.474;2022-10-22T13:48:55;6.15;;;1.50;;
22949;SDS011;11641;51.018;4.474;2022-10-22T13:51:24;7.00;;;1.60;;
22949;SDS011;11641;51.018;4.474;2022-10-22T13:53:56;6.32;;;1.50;;
22949;SDS011;11641;51.018;4.474;2022-10-22T13:56:22;5.18;;;1.02;;
22949;SDS011;11641;51.018;4.474;2022-10-22T13:58:52;5.30;;;1.10;;
22949;SDS011;11641;51.018;4.474;2022-10-22T14:01:24;4.20;;;1.20;;
22949;SDS011;11641;51.018;4.474;2022-10-22T14:03:54;4.80;;;1.23;;
22949;SDS011;11641;51.018;4.474;2022-10-22T14:06:28;5.97;;;1.38;;
22949;SDS011;11641;51.018;4.474;2022-10-22T14:08:57;5.38;;;1.30;;
22949;SDS011;11641;51.018;4.474;2022-10-22T14:11:30;5.85;;;1.20;;
22949;SDS011;11641;51.018;4.474;2022-10-22T14:13:59;8.50;;;1.10;;
22949;SDS011;11641;51.018;4.474;2022-10-22T14:16:27;3.80;;;0.90;;
22949;SDS011;11641;51.018;4.474;2022-10-22T14:18:57;6.55;;;1.05;;
22949;SDS011;11641;51.018;4.474;2022-10-22T14:21:27;6.18;;;1.55;;
22949;SDS011;11641;51.018;4.474;2022-10-22T14:23:59;6.10;;;1.13;;
22949;SDS011;11641;51.018;4.474;2022-10-22T14:26:26;7.05;;;1.13;;
22949;SDS011;11641;51.018;4.474;2022-10-22T14:28:57;6.78;;;1.27;;
22949;SDS011;11641;51.018;4.474;2022-10-22T14:31:28;5.97;;;1.45;;
22949;SDS011;11641;51.018;4.474;2022-10-22T14:33:54;5.75;;;1.20;;
22949;SDS011;11641;51.018;4.474;2022-10-22T14:36:23;8.27;;;1.52;;
22949;SDS011;11641;51.018;4.474;2022-10-22T14:38:49;5.53;;;1.73;;
22949;SDS011;11641;51.018;4.474;2022-10-22T14:41:24;5.20;;;1.13;;
22949;SDS011;11641;51.018;4.474;2022-10-22T14:43:55;8.05;;;1.60;;
22949;SDS011;11641;51.018;4.474;2022-10-22T14:46:25;4.03;;;1.38;;
22949;SDS011;11641;51.018;4.474;2022-10-22T14:48:52;8.23;;;1.30;;
22949;SDS011;11641;51.018;4.474;2022-10-22T14:51:20;7.18;;;1.60;;
22949;SDS011;11641;51.018;4.474;2022-10-22T14:53:50;7.03;;;1.40;;
22949;SDS011;11641;51.018;4.474;2022-10-22T14:56:17;10.48;;;1.50;;
22949;SDS011;11641;51.018;4.474;2022-10-22T14:58:45;6.22;;;1.25;;
22949;SDS011;11641;51.018;4.474;2022-10-22T15:01:13;6.68;;;1.02;;
22949;SDS011;11641;51.018;4.474;2022-10-22T15:03:39;7.05;;;1.38;;
22949;SDS011;11641;51.018;4.474;2022-10-22T15:06:05;5.20;;;1.30;;
22949;SDS011;11641;51.018;4.474;2022-10-22T15:08:31;6.25;;;1.20;;
22949;SDS011;11641;51.018;4.474;2022-10-22T15:10:57;7.47;;;1.35;;
22949;SDS011;11641;51.018;4.474;2022-10-22T15:13:34;7.47;;;1.30;;
22949;SDS011;11641;51.018;4.474;2022-10-22T15:16:00;4.45;;;1.02;;
22949;SDS011;11641;51.018;4.474;2022-10-22T15:18:30;5.13;;;1.35;;
22949;SDS011;11641;51.018;4.474;2022-10-22T15:20:59;6.75;;;1.38;;
22949;SDS011;11641;51.018;4.474;2022-10-22T15:23:27;5.95;;;1.00;;
22949;SDS011;11641;51.018;4.474;2022-10-22T15:25:56;9.18;;;1.27;;
22949;SDS011;11641;51.018;4.474;2022-10-22T15:28:22;6.70;;;1.30;;
22949;SDS011;11641;51.018;4.474;2022-10-22T15:30:55;6.32;;;1.33;;
22949;SDS011;11641;51.018;4.474;2022-10-22T15:33:23;8.77;;;1.77;;
22949;SDS011;11641;51.018;4.474;2022-10-22T15:35:50;6.25;;;1.63;;
22949;SDS011;11641;51.018;4.474;2022-10-22T15:38:17;8.65;;;1.48;;
22949;SDS011;11641;51.018;4.474;2022-10-22T15:40:44;7.18;;;1.38;;
22949;SDS011;11641;51.018;4.474;2022-10-22T15:43:12;6.93;;;1.67;;
22949;SDS011;11641;51.018;4.474;2022-10-22T15:45:38;8.25;;;1.10;;
22949;SDS011;11641;51.018;4.474;2022-10-22T15:48:07;7.43;;;1.50;;
22949;SDS011;11641;51.018;4.474;2022-10-22T15:50:36;5.00;;;1.15;;
22949;SDS011;11641;51.018;4.474;2022-10-22T15:53:05;6.47;;;1.33;;
22949;SDS011;11641;51.018;4.474;2022-10-22T15:55:33;9.60;;;1.38;;
22949;SDS011;11641;51.018;4.474;2022-10-22T15:57:59;8.70;;;1.40;;
22949;SDS011;11641;51.018;4.474;2022-10-22T16:00:26;13.32;;;1.33;;
22949;SDS011;11641;51.018;4.474;2022-10-22T16:02:56;5.55;;;1.38;;
22949;SDS011;11641;51.018;4.474;2022-10-22T16:05:25;8.55;;;1.40;;
22949;SDS011;11641;51.018;4.474;2022-10-22T16:07:52;8.43;;;1.50;;
22949;SDS011;11641;51.018;4.474;2022-10-22T16:10:19;5.40;;;0.98;;
22949;SDS011;11641;51.018;4.474;2022-10-22T16:12:45;5.22;;;1.00;;
22949;SDS011;11641;51.018;4.474;2022-10-22T16:15:10;5.60;;;1.30;;
22949;SDS011;11641;51.018;4.474;2022-10-22T16:17:40;6.05;;;1.30;;
22949;SDS011;11641;51.018;4.474;2022-10-22T16:20:06;8.63;;;1.55;;
22949;SDS011;11641;51.018;4.474;2022-10-22T16:22:33;7.20;;;1.55;;
22949;SDS011;11641;51.018;4.474;2022-10-22T16:24:58;4.10;;;1.10;;
22949;SDS011;11641;51.018;4.474;2022-10-22T16:27:26;8.45;;;1.33;;
22949;SDS011;11641;51.018;4.474;2022-10-22T16:29:52;6.47;;;1.20;;
22949;SDS011;11641;51.018;4.474;2022-10-22T16:32:18;7.57;;;1.40;;
22949;SDS011;11641;51.018;4.474;2022-10-22T16:34:46;11.60;;;2.03;;
22949;SDS011;11641;51.018;4.474;2022-10-22T16:37:11;12.30;;;2.13;;
22949;SDS011;11641;51.018;4.474;2022-10-22T16:39:37;15.68;;;2.22;;
22949;SDS011;11641;51.018;4.474;2022-10-22T16:42:03;7.53;;;1.88;;
22949;SDS011;11641;51.018;4.474;2022-10-22T16:44:29;10.57;;;2.00;;
22949;SDS011;11641;51.018;4.474;2022-10-22T16:46:55;8.20;;;2.25;;
22949;SDS011;11641;51.018;4.474;2022-10-22T16:49:20;7.55;;;1.63;;
22949;SDS011;11641;51.018;4.474;2022-10-22T16:51:46;10.23;;;2.22;;
22949;SDS011;11641;51.018;4.474;2022-10-22T16:54:11;7.80;;;2.15;;
22949;SDS011;11641;51.018;4.474;2022-10-22T16:56:39;10.05;;;2.13;;